Time;durP1;ratioP1;P1;durP2;ratioP2;P2;SDS_P1;SDS_P2;PMS_P1;PMS_P2;Temp;Humidity;BMP_temperature;BMP_pressure;BME280_temperature;BME280_humidity;BME280_pressure;Samples;Min_cycle;Max_cycle;Signal;HPM_P1;HPM_P2
2023/03/11 00:01:04;;;;;;;9.60;6.63;;;;;;;;;;10515892;28;20485;-76
2023/03/11 00:06:25;;;;;;;22.13;8.38;;;;;;;;;;10511569;28;20032;-76
2023/03/11 00:11:46;;;;;;;14.90;7.20;;;;;;;;;;10510030;28;20037;-76
2023/03/11 00:17:07;;;;;;;9.90;6.35;;;;;;;;;;10532107;28;20062;-76
2023/03/11 00:22:28;;;;;;;20.70;8.63;;;;;;;;;;10502049;28;20039;-74
2023/03/11 00:27:49;;;;;;;21.70;8.63;;;;;;;;;;10500538;28;20040;-74
2023/03/11 00:33:11;;;;;;;19.88;8.07;;;;;;;;;;10503309;28;20036;-74
2023/03/11 00:38:32;;;;;;;12.10;7.43;;;;;;;;;;10501788;28;20149;-74
2023/03/11 00:43:53;;;;;;;9.15;6.97;;;;;;;;;;10498777;28;20040;-74
2023/03/11 00:49:14;;;;;;;14.05;7.78;;;;;;;;;;10524365;28;20025;-74
2023/03/11 00:54:35;;;;;;;15.23;8.27;;;;;;;;;;10514461;28;20532;-74
2023/03/11 00:59:57;;;;;;;9.43;7.07;;;;;;;;;;10525336;28;20035;-74
2023/03/11 01:05:19;;;;;;;9.05;7.45;;;;;;;;;;10532833;28;20031;-74
2023/03/11 01:10:40;;;;;;;14.23;8.15;;;;;;;;;;10498181;28;20048;-74
2023/03/11 01:16:01;;;;;;;12.93;7.05;;;;;;;;;;10530164;28;20063;-74
2023/03/11 01:21:22;;;;;;;11.77;7.30;;;;;;;;;;10525368;28;20568;-74
2023/03/11 01:26:43;;;;;;;8.73;7.22;;;;;;;;;;10527599;28;20032;-74
2023/03/11 01:32:05;;;;;;;22.10;8.90;;;;;;;;;;10534714;28;20032;-74
2023/03/11 01:37:26;;;;;;;13.75;7.35;;;;;;;;;;10531737;28;20035;-73
2023/03/11 01:42:47;;;;;;;13.30;6.93;;;;;;;;;;10521809;28;20036;-74
2023/03/11 01:48:09;;;;;;;10.85;7.45;;;;;;;;;;10538888;28;20504;-74
2023/03/11 01:53:30;;;;;;;11.52;6.88;;;;;;;;;;10511463;28;20101;-73
2023/03/11 01:58:52;;;;;;;14.93;7.80;;;;;;;;;;10486611;28;20051;-72
2023/03/11 02:04:14;;;;;;;16.23;8.55;;;;;;;;;;10519592;28;20047;-73
2023/03/11 02:09:35;;;;;;;11.05;7.55;;;;;;;;;;10512464;28;20478;-73
2023/03/11 02:14:56;;;;;;;11.50;6.22;;;;;;;;;;10531701;28;20032;-73
2023/03/11 02:20:21;;;;;;;14.90;7.72;;;;;;;;;;10551287;28;20032;-73
2023/03/11 02:25:49;;;;;;;15.20;6.88;;;;;;;;;;10512229;28;20032;-74
2023/03/11 02:31:10;;;;;;;12.02;7.40;;;;;;;;;;10531808;28;20047;-74
2023/03/11 02:36:38;;;;;;;15.43;7.03;;;;;;;;;;10533511;28;20036;-74
2023/03/11 02:42:01;;;;;;;10.93;7.13;;;;;;;;;;10527999;28;20047;-74
2023/03/11 02:47:22;;;;;;;9.00;7.13;;;;;;;;;;10515590;28;20027;-74
2023/03/11 02:52:43;;;;;;;11.88;7.45;;;;;;;;;;10521504;28;20072;-74
2023/03/11 02:58:04;;;;;;;12.38;7.85;;;;;;;;;;10514363;28;20032;-74
2023/03/11 03:03:25;;;;;;;10.60;7.15;;;;;;;;;;10516724;28;20103;-74
2023/03/11 03:08:46;;;;;;;11.73;7.13;;;;;;;;;;10515136;28;20481;-73
2023/03/11 03:14:07;;;;;;;11.38;7.03;;;;;;;;;;10496709;28;20044;-74
2023/03/11 03:19:28;;;;;;;12.88;7.15;;;;;;;;;;10533953;28;20040;-72
2023/03/11 03:24:49;;;;;;;12.18;7.13;;;;;;;;;;10530886;28;20040;-73
2023/03/11 03:30:10;;;;;;;16.83;7.32;;;;;;;;;;10495303;28;20043;-73
2023/03/11 03:35:31;;;;;;;13.77;8.35;;;;;;;;;;10540585;28;20043;-73
2023/03/11 03:40:52;;;;;;;10.32;7.30;;;;;;;;;;10499629;28;20489;-73
2023/03/11 03:46:13;;;;;;;10.05;6.88;;;;;;;;;;10522339;28;20036;-75
2023/03/11 03:51:34;;;;;;;10.75;7.80;;;;;;;;;;10515306;28;20436;-77
2023/03/11 03:56:54;;;;;;;9.15;7.13;;;;;;;;;;10524154;28;20028;-77
2023/03/11 04:02:15;;;;;;;13.52;8.07;;;;;;;;;;10507926;28;20047;-77
2023/03/11 04:07:36;;;;;;;10.90;7.20;;;;;;;;;;10519956;28;20040;-77
2023/03/11 04:12:57;;;;;;;10.05;7.60;;;;;;;;;;10519454;28;20043;-77
2023/03/11 04:18:18;;;;;;;11.35;7.70;;;;;;;;;;10540830;28;20028;-77
2023/03/11 04:23:39;;;;;;;8.93;6.93;;;;;;;;;;10527727;28;20047;-77
2023/03/11 04:29:00;;;;;;;10.43;7.10;;;;;;;;;;10540704;28;20024;-77
2023/03/11 04:34:21;;;;;;;14.10;8.43;;;;;;;;;;10537584;28;20538;-77
2023/03/11 04:39:41;;;;;;;14.43;7.22;;;;;;;;;;10522150;28;20378;-78
2023/03/11 04:45:02;;;;;;;12.45;7.30;;;;;;;;;;10539062;28;20036;-78
2023/03/11 04:50:23;;;;;;;9.35;7.68;;;;;;;;;;10528907;28;20028;-77
2023/03/11 04:55:46;;;;;;;27.15;10.15;;;;;;;;;;10516837;28;20040;-78
2023/03/11 05:01:07;;;;;;;11.93;8.15;;;;;;;;;;10515923;28;20039;-78
2023/03/11 05:06:28;;;;;;;17.92;9.30;;;;;;;;;;10520488;28;20040;-78
2023/03/11 05:11:49;;;;;;;16.90;8.40;;;;;;;;;;10520612;28;20587;-79
2023/03/11 05:17:12;;;;;;;10.90;8.25;;;;;;;;;;10505102;28;20036;-76
2023/03/11 05:22:33;;;;;;;10.18;8.10;;;;;;;;;;10509953;28;20039;-78
2023/03/11 05:27:54;;;;;;;8.55;7.60;;;;;;;;;;10522412;28;20068;-78
2023/03/11 05:33:15;;;;;;;12.20;7.65;;;;;;;;;;10517011;28;20036;-78
2023/03/11 05:38:36;;;;;;;11.48;7.78;;;;;;;;;;10494537;28;20504;-78
2023/03/11 05:43:56;;;;;;;15.27;8.50;;;;;;;;;;10516766;28;20028;-78
2023/03/11 05:49:20;;;;;;;25.25;10.48;;;;;;;;;;10548542;28;20094;-78
2023/03/11 05:54:40;;;;;;;11.48;8.35;;;;;;;;;;10528238;28;20044;-78
2023/03/11 06:00:04;;;;;;;15.32;8.77;;;;;;;;;;10507941;28;20454;-78
2023/03/11 06:05:25;;;;;;;8.85;7.68;;;;;;;;;;10519020;28;20036;-78
2023/03/11 06:10:46;;;;;;;10.23;7.55;;;;;;;;;;10536127;28;20031;-78
2023/03/11 06:16:07;;;;;;;18.77;8.85;;;;;;;;;;10516632;28;20039;-78
2023/03/11 06:21:28;;;;;;;18.60;9.07;;;;;;;;;;10536120;28;20036;-78
2023/03/11 06:26:52;;;;;;;18.33;8.90;;;;;;;;;;10532314;28;20043;-78
2023/03/11 06:32:13;;;;;;;13.00;8.82;;;;;;;;;;10506159;28;20386;-78
2023/03/11 06:37:36;;;;;;;11.13;7.90;;;;;;;;;;10517412;28;20065;-78
2023/03/11 06:42:57;;;;;;;29.95;10.48;;;;;;;;;;10515799;28;20477;-79
2023/03/11 06:48:18;;;;;;;9.57;7.90;;;;;;;;;;10556623;27;20043;-79
2023/03/11 06:53:39;;;;;;;15.13;8.93;;;;;;;;;;10496202;28;20058;-79
2023/03/11 06:59:00;;;;;;;18.45;9.07;;;;;;;;;;10528645;28;20036;-78
2023/03/11 07:04:21;;;;;;;16.38;8.27;;;;;;;;;;10529753;28;20063;-78
2023/03/11 07:09:42;;;;;;;10.15;7.80;;;;;;;;;;10526392;28;20028;-77
2023/03/11 07:15:03;;;;;;;16.33;8.63;;;;;;;;;;10496839;28;20438;-79
2023/03/11 07:20:24;;;;;;;24.08;9.95;;;;;;;;;;10521840;28;20056;-78
2023/03/11 07:25:45;;;;;;;16.40;7.82;;;;;;;;;;10507342;28;20035;-78
2023/03/11 07:31:07;;;;;;;9.82;7.20;;;;;;;;;;10512848;28;20032;-79
2023/03/11 07:36:28;;;;;;;11.85;6.50;;;;;;;;;;10542342;28;20044;-79
2023/03/11 07:41:49;;;;;;;12.25;6.47;;;;;;;;;;10508535;28;20047;-79
2023/03/11 07:47:10;;;;;;;13.35;6.22;;;;;;;;;;10505257;28;20032;-79
2023/03/11 07:52:31;;;;;;;11.73;6.13;;;;;;;;;;10520357;28;20060;-79
2023/03/11 07:57:52;;;;;;;9.48;5.93;;;;;;;;;;10520460;28;20036;-80
2023/03/11 08:03:13;;;;;;;9.27;5.68;;;;;;;;;;10523816;28;20040;-79
2023/03/11 08:08:34;;;;;;;10.70;5.55;;;;;;;;;;10512629;28;20032;-79
2023/03/11 08:13:56;;;;;;;9.30;5.13;;;;;;;;;;10508327;28;20408;-79
2023/03/11 08:19:17;;;;;;;12.10;5.55;;;;;;;;;;10508745;28;20039;-78
2023/03/11 08:24:38;;;;;;;11.38;5.72;;;;;;;;;;10510941;28;20046;-78
2023/03/11 08:29:59;;;;;;;10.60;5.05;;;;;;;;;;10499820;28;20040;-77
2023/03/11 08:35:20;;;;;;;11.57;4.97;;;;;;;;;;10512620;28;20474;-78
2023/03/11 08:40:41;;;;;;;11.35;4.82;;;;;;;;;;10520131;28;20481;-78
2023/03/11 08:46:03;;;;;;;8.88;4.25;;;;;;;;;;10506197;28;20041;-78
2023/03/11 08:51:24;;;;;;;9.02;4.60;;;;;;;;;;10511961;28;20056;-78
2023/03/11 08:56:46;;;;;;;9.63;4.80;;;;;;;;;;10502170;28;20028;-78
2023/03/11 09:02:08;;;;;;;18.42;6.13;;;;;;;;;;10490071;28;20048;-78
2023/03/11 09:07:29;;;;;;;14.93;6.18;;;;;;;;;;10523466;27;20040;-77
2023/03/11 09:12:50;;;;;;;9.20;4.65;;;;;;;;;;10501930;28;20043;-77
2023/03/11 09:18:12;;;;;;;13.50;5.22;;;;;;;;;;10511972;28;20036;-78
2023/03/11 09:23:33;;;;;;;17.50;6.22;;;;;;;;;;10490495;28;20045;-79
2023/03/11 09:28:54;;;;;;;13.90;4.93;;;;;;;;;;10522437;28;20492;-79
2023/03/11 09:34:15;;;;;;;6.35;4.25;;;;;;;;;;10516479;28;20032;-77
2023/03/11 09:39:36;;;;;;;9.35;4.40;;;;;;;;;;10506686;28;20024;-75
2023/03/11 09:45:03;;;;;;;8.82;4.50;;;;;;;;;;10505191;28;20498;-79
2023/03/11 09:50:27;;;;;;;14.93;6.32;;;;;;;;;;10513021;28;20033;-78
2023/03/11 09:55:51;;;;;;;7.90;5.60;;;;;;;;;;10515593;28;20050;-74
2023/03/11 10:01:32;;;;;;;9.02;6.22;;;;;;;;;;10502704;28;20032;-77
2023/03/11 10:06:53;;;;;;;12.40;6.97;;;;;;;;;;10519772;28;20387;-79
2023/03/11 10:12:23;;;;;;;14.70;7.28;;;;;;;;;;10505904;28;20047;-76
2023/03/11 10:18:02;;;;;;;11.18;6.40;;;;;;;;;;10512334;28;20036;-75
2023/03/11 10:23:24;;;;;;;11.82;7.22;;;;;;;;;;10516672;28;20517;-73
2023/03/11 10:28:50;;;;;;;12.35;6.80;;;;;;;;;;10516696;28;20036;-77
2023/03/11 10:34:16;;;;;;;13.85;7.15;;;;;;;;;;10513317;28;20043;-75
2023/03/11 10:39:38;;;;;;;13.77;6.75;;;;;;;;;;10524574;28;20040;-73
2023/03/11 10:44:59;;;;;;;10.07;6.13;;;;;;;;;;10518554;28;20524;-79
2023/03/11 10:50:20;;;;;;;13.98;6.93;;;;;;;;;;10527340;28;20039;-74
2023/03/11 10:55:49;;;;;;;9.25;6.65;;;;;;;;;;10515035;28;20529;-76
2023/03/11 11:01:15;;;;;;;13.65;7.00;;;;;;;;;;10509140;28;20030;-76
2023/03/11 11:06:36;;;;;;;12.05;6.97;;;;;;;;;;10506270;28;20520;-76
2023/03/11 11:12:03;;;;;;;9.98;6.35;;;;;;;;;;10513050;28;20396;-71
2023/03/11 11:17:31;;;;;;;14.48;6.90;;;;;;;;;;10520278;28;20436;-75
2023/03/11 11:22:56;;;;;;;18.48;7.15;;;;;;;;;;10505408;28;20041;-73
2023/03/11 11:28:18;;;;;;;15.45;7.75;;;;;;;;;;10519864;28;20357;-76
2023/03/11 11:33:47;;;;;;;12.68;6.72;;;;;;;;;;10515534;28;20028;-76
2023/03/11 11:39:11;;;;;;;11.13;6.93;;;;;;;;;;10521177;28;20031;-76
2023/03/11 11:44:33;;;;;;;17.17;7.38;;;;;;;;;;10484374;28;20572;-76
2023/03/11 11:49:55;;;;;;;8.70;6.28;;;;;;;;;;10508225;28;20044;-76
2023/03/11 11:55:18;;;;;;;16.58;7.70;;;;;;;;;;10517897;28;20067;-76
2023/03/11 12:00:39;;;;;;;9.77;6.13;;;;;;;;;;10513287;28;20424;-76
2023/03/11 12:06:04;;;;;;;9.93;6.55;;;;;;;;;;10522884;28;20048;-76
2023/03/11 12:11:36;;;;;;;12.55;6.95;;;;;;;;;;10491607;28;20043;-74
2023/03/11 12:17:01;;;;;;;12.27;6.60;;;;;;;;;;10507444;28;20036;-76
2023/03/11 12:22:25;;;;;;;14.63;6.68;;;;;;;;;;10504720;28;20345;-76
2023/03/11 12:27:46;;;;;;;12.52;6.40;;;;;;;;;;10506142;28;20033;-76
2023/03/11 12:33:30;;;;;;;9.93;6.15;;;;;;;;;;10514574;28;20497;-76
2023/03/11 12:38:52;;;;;;;21.70;8.38;;;;;;;;;;10493041;28;20079;-76
2023/03/11 12:44:24;;;;;;;23.52;8.18;;;;;;;;;;10494036;28;20526;-76
2023/03/11 12:49:46;;;;;;;14.52;6.65;;;;;;;;;;10486152;28;20036;-76
2023/03/11 12:55:33;;;;;;;12.93;5.82;;;;;;;;;;10487549;28;20440;-77
2023/03/11 13:01:14;;;;;;;7.93;5.35;;;;;;;;;;10506782;28;20024;-76
2023/03/11 13:06:53;;;;;;;17.98;7.38;;;;;;;;;;10527398;28;20366;-77
2023/03/11 13:12:49;;;;;;;8.60;5.03;;;;;;;;;;10526658;28;20408;-77
2023/03/11 13:18:15;;;;;;;13.20;6.40;;;;;;;;;;10467043;28;20056;-77
2023/03/11 13:23:39;;;;;;;11.77;5.97;;;;;;;;;;10526442;28;20389;-77
2023/03/11 13:29:18;;;;;;;11.52;5.95;;;;;;;;;;10519258;28;20040;-77
2023/03/11 13:34:56;;;;;;;13.73;6.68;;;;;;;;;;10521705;28;20032;-77
2023/03/11 13:40:20;;;;;;;8.23;4.93;;;;;;;;;;10522497;28;20109;-77
2023/03/11 13:45:46;;;;;;;16.98;6.82;;;;;;;;;;10523383;28;20039;-78
2023/03/11 13:51:12;;;;;;;9.85;5.80;;;;;;;;;;10519906;28;20048;-78
2023/03/11 13:56:38;;;;;;;10.80;5.55;;;;;;;;;;10500766;28;20504;-78
2023/03/11 14:01:59;;;;;;;10.32;5.72;;;;;;;;;;10524006;28;20386;-81
2023/03/11 14:07:19;;;;;;;12.85;6.28;;;;;;;;;;10518509;28;20024;-79
2023/03/11 14:12:41;;;;;;;11.20;6.00;;;;;;;;;;10528312;28;20073;-79
2023/03/11 14:18:21;;;;;;;9.90;5.38;;;;;;;;;;10510301;28;20028;-76
2023/03/11 14:23:44;;;;;;;12.95;6.18;;;;;;;;;;10499012;28;20043;-81
2023/03/11 14:29:10;;;;;;;13.45;6.05;;;;;;;;;;10491429;28;20043;-75
2023/03/11 14:34:38;;;;;;;18.48;7.32;;;;;;;;;;10504225;28;20043;-75
2023/03/11 14:39:59;;;;;;;19.63;8.23;;;;;;;;;;10494404;28;20499;-75
2023/03/11 14:45:24;;;;;;;20.60;7.97;;;;;;;;;;10494081;28;20040;-75
2023/03/11 14:50:48;;;;;;;9.65;5.55;;;;;;;;;;10510804;28;20048;-75
2023/03/11 14:56:15;;;;;;;12.35;6.65;;;;;;;;;;10502988;28;20044;-74
2023/03/11 15:01:40;;;;;;;10.60;5.80;;;;;;;;;;10488373;28;20044;-74
2023/03/11 15:07:03;;;;;;;16.13;6.20;;;;;;;;;;10497770;28;20032;-73
2023/03/11 15:12:31;;;;;;;21.88;8.25;;;;;;;;;;10497721;28;20035;-73
2023/03/11 15:17:56;;;;;;;18.40;9.38;;;;;;;;;;10506797;28;20670;-74
2023/03/11 15:23:20;;;;;;;12.73;7.03;;;;;;;;;;10504656;28;20119;-74
2023/03/11 15:28:41;;;;;;;13.88;7.20;;;;;;;;;;10490827;28;20041;-74
2023/03/11 15:34:08;;;;;;;13.60;7.53;;;;;;;;;;10507623;28;20032;-73
2023/03/11 15:39:28;;;;;;;14.80;8.27;;;;;;;;;;10518530;28;20036;-74
2023/03/11 15:44:55;;;;;;;9.80;7.47;;;;;;;;;;10510902;28;20035;-74
2023/03/11 15:50:22;;;;;;;12.52;6.47;;;;;;;;;;10503530;28;20754;-74
2023/03/11 15:55:43;;;;;;;16.48;7.53;;;;;;;;;;10508241;28;20041;-73
2023/03/11 16:01:04;;;;;;;31.10;14.27;;;;;;;;;;10489323;28;20055;-73
2023/03/11 16:06:25;;;;;;;17.98;7.63;;;;;;;;;;10489395;28;20412;-73
2023/03/11 16:11:46;;;;;;;10.95;7.00;;;;;;;;;;10512529;28;20032;-74
2023/03/11 16:17:07;;;;;;;19.08;5.85;;;;;;;;;;10515435;28;20036;-73
2023/03/11 16:22:33;;;;;;;9.55;5.68;;;;;;;;;;10533653;28;20058;-74
2023/03/11 16:27:55;;;;;;;5.60;5.00;;;;;;;;;;10512204;28;20390;-74
2023/03/11 16:33:16;;;;;;;10.55;6.18;;;;;;;;;;10510810;28;20054;-74
2023/03/11 16:38:42;;;;;;;14.60;6.70;;;;;;;;;;10496253;28;20044;-74
2023/03/11 16:44:03;;;;;;;8.73;6.00;;;;;;;;;;10516953;28;20037;-74
2023/03/11 16:49:24;;;;;;;18.50;7.80;;;;;;;;;;10497896;28;20376;-74
2023/03/11 16:54:45;;;;;;;9.27;6.05;;;;;;;;;;10504781;28;20052;-74
2023/03/11 17:00:08;;;;;;;8.15;5.88;;;;;;;;;;10509657;28;20071;-74
2023/03/11 17:05:29;;;;;;;16.50;11.52;;;;;;;;;;10513128;28;20102;-75
2023/03/11 17:10:51;;;;;;;18.08;11.68;;;;;;;;;;10522106;28;20039;-76
2023/03/11 17:16:12;;;;;;;13.30;6.05;;;;;;;;;;10529646;28;20039;-75
2023/03/11 17:21:33;;;;;;;14.30;7.30;;;;;;;;;;10497398;28;20056;-76
2023/03/11 17:26:54;;;;;;;11.10;5.68;;;;;;;;;;10534594;28;20036;-76
2023/03/11 17:32:15;;;;;;;9.43;6.07;;;;;;;;;;10525901;28;20033;-75
2023/03/11 17:37:36;;;;;;;11.30;6.70;;;;;;;;;;10510554;28;20035;-76
2023/03/11 17:42:57;;;;;;;8.35;6.25;;;;;;;;;;10518911;28;20374;-76
2023/03/11 17:48:20;;;;;;;8.88;6.95;;;;;;;;;;10531143;28;20034;-74
2023/03/11 17:53:42;;;;;;;15.93;7.22;;;;;;;;;;10515254;28;20051;-75
2023/03/11 17:59:02;;;;;;;17.63;8.55;;;;;;;;;;10515033;28;20044;-75
2023/03/11 18:04:23;;;;;;;12.25;7.90;;;;;;;;;;10503063;28;20075;-75
2023/03/11 18:09:44;;;;;;;12.10;7.40;;;;;;;;;;10518184;28;20055;-76
2023/03/11 18:15:07;;;;;;;20.90;9.75;;;;;;;;;;10523515;28;20507;-75
2023/03/11 18:20:27;;;;;;;17.83;9.50;;;;;;;;;;10525634;28;20055;-76
2023/03/11 18:25:50;;;;;;;18.30;9.05;;;;;;;;;;10526014;28;20036;-75
2023/03/11 18:31:12;;;;;;;27.10;10.68;;;;;;;;;;10523227;28;20087;-76
2023/03/11 18:36:35;;;;;;;22.33;9.85;;;;;;;;;;10509211;28;20088;-76
2023/03/11 18:41:55;;;;;;;24.00;11.48;;;;;;;;;;10507530;28;20032;-75
2023/03/11 18:47:16;;;;;;;28.20;12.48;;;;;;;;;;10514073;28;20504;-76
2023/03/11 18:52:37;;;;;;;30.77;12.93;;;;;;;;;;10525145;28;20044;-76
2023/03/11 18:57:58;;;;;;;26.20;12.40;;;;;;;;;;10513035;28;20399;-76
2023/03/11 19:03:19;;;;;;;21.70;11.48;;;;;;;;;;10514466;28;20078;-75
2023/03/11 19:08:40;;;;;;;26.45;13.32;;;;;;;;;;10531239;28;20117;-76
2023/03/11 19:14:01;;;;;;;28.77;13.15;;;;;;;;;;10520313;28;20036;-76
2023/03/11 19:19:22;;;;;;;28.52;13.57;;;;;;;;;;10501375;28;20486;-75
2023/03/11 19:24:43;;;;;;;19.38;11.40;;;;;;;;;;10521518;28;20040;-76
2023/03/11 19:30:04;;;;;;;18.60;11.70;;;;;;;;;;10476244;28;20048;-76
2023/03/11 19:35:25;;;;;;;19.63;11.57;;;;;;;;;;10505547;28;20032;-76
2023/03/11 19:40:49;;;;;;;23.33;11.30;;;;;;;;;;10531173;28;20028;-76
2023/03/11 19:46:15;;;;;;;42.58;15.57;;;;;;;;;;10542790;28;20040;-77
2023/03/11 19:51:36;;;;;;;40.38;14.77;;;;;;;;;;10539379;28;20028;-76
2023/03/11 19:56:57;;;;;;;31.08;14.18;;;;;;;;;;10483745;28;20037;-76
2023/03/11 20:02:18;;;;;;;26.17;12.90;;;;;;;;;;10503306;28;20523;-76
2023/03/11 20:07:38;;;;;;;24.30;13.05;;;;;;;;;;10498663;28;20035;-76
2023/03/11 20:13:01;;;;;;;24.77;12.88;;;;;;;;;;10518283;28;20052;-76
2023/03/11 20:18:22;;;;;;;26.45;12.32;;;;;;;;;;10514083;28;20568;-75
2023/03/11 20:23:42;;;;;;;28.20;13.48;;;;;;;;;;10572746;28;20048;-76
2023/03/11 20:29:03;;;;;;;18.83;11.60;;;;;;;;;;10534960;28;20032;-76
2023/03/11 20:34:24;;;;;;;30.50;14.05;;;;;;;;;;10532216;28;20519;-76
2023/03/11 20:39:45;;;;;;;27.08;13.38;;;;;;;;;;10515674;28;20044;-76
2023/03/11 20:45:06;;;;;;;21.23;11.77;;;;;;;;;;10529217;28;20047;-76
2023/03/11 20:50:27;;;;;;;22.38;12.13;;;;;;;;;;10506622;28;20024;-77
2023/03/11 20:55:48;;;;;;;18.17;10.95;;;;;;;;;;10532097;28;20439;-76
2023/03/11 21:01:10;;;;;;;13.20;10.13;;;;;;;;;;10522517;28;20036;-76
2023/03/11 21:06:35;;;;;;;18.45;10.27;;;;;;;;;;10531647;28;20039;-76
2023/03/11 21:11:56;;;;;;;17.85;10.40;;;;;;;;;;10523474;28;20489;-76
2023/03/11 21:17:17;;;;;;;15.60;10.55;;;;;;;;;;10531188;28;20066;-76
2023/03/11 21:22:38;;;;;;;16.80;11.20;;;;;;;;;;10577678;28;20047;-76
2023/03/11 21:27:58;;;;;;;17.23;10.68;;;;;;;;;;10565477;28;20053;-76
2023/03/11 21:33:19;;;;;;;17.08;11.38;;;;;;;;;;10561531;28;20401;-76
2023/03/11 21:38:41;;;;;;;16.02;10.20;;;;;;;;;;10523043;28;20036;-76
2023/03/11 21:44:01;;;;;;;19.05;11.45;;;;;;;;;;10495835;28;20044;-76
2023/03/11 21:49:22;;;;;;;19.75;11.35;;;;;;;;;;10524622;28;20035;-76
2023/03/11 21:54:43;;;;;;;17.15;11.20;;;;;;;;;;10532781;28;20651;-76
2023/03/11 22:00:06;;;;;;;15.63;10.48;;;;;;;;;;10550493;28;20032;-76
2023/03/11 22:05:27;;;;;;;18.20;10.70;;;;;;;;;;10535673;28;20102;-76
2023/03/11 22:10:48;;;;;;;17.75;10.00;;;;;;;;;;10520030;28;20043;-76
2023/03/11 22:16:08;;;;;;;15.00;10.18;;;;;;;;;;10494363;28;20428;-76
2023/03/11 22:21:29;;;;;;;20.42;11.20;;;;;;;;;;10555258;28;20039;-76
2023/03/11 22:26:51;;;;;;;18.48;10.52;;;;;;;;;;10549131;28;20035;-76
2023/03/11 22:32:12;;;;;;;18.15;11.35;;;;;;;;;;10515798;28;20028;-77
2023/03/11 22:37:33;;;;;;;19.25;11.50;;;;;;;;;;10510332;28;20031;-77
2023/03/11 22:42:54;;;;;;;18.23;10.77;;;;;;;;;;10495397;28;20032;-77
2023/03/11 22:48:15;;;;;;;17.23;10.95;;;;;;;;;;10516960;28;20450;-77
2023/03/11 22:53:36;;;;;;;18.83;10.65;;;;;;;;;;10573124;28;20055;-77
2023/03/11 22:58:56;;;;;;;14.25;10.82;;;;;;;;;;10533944;28;20036;-77
2023/03/11 23:04:17;;;;;;;18.95;10.95;;;;;;;;;;10517691;28;20398;-77
2023/03/11 23:09:38;;;;;;;20.35;11.00;;;;;;;;;;10530008;28;20044;-77
2023/03/11 23:15:00;;;;;;;16.50;10.38;;;;;;;;;;10518774;28;20042;-77
2023/03/11 23:20:21;;;;;;;14.68;9.98;;;;;;;;;;10556822;28;20046;-77
2023/03/11 23:25:42;;;;;;;15.43;9.40;;;;;;;;;;10532999;28;20433;-76
2023/03/11 23:31:03;;;;;;;12.93;9.85;;;;;;;;;;10517804;28;20040;-77
2023/03/11 23:36:29;;;;;;;11.13;8.60;;;;;;;;;;10498189;28;20036;-76
2023/03/11 23:41:49;;;;;;;22.33;9.02;;;;;;;;;;10515551;28;20516;-76
2023/03/11 23:47:10;;;;;;;13.50;8.85;;;;;;;;;;10532291;28;20035;-76
2023/03/11 23:52:31;;;;;;;20.90;10.95;;;;;;;;;;10519606;28;20514;-76
2023/03/11 23:57:52;;;;;;;14.10;8.60;;;;;;;;;;10533179;28;20606;-77
